Providence, Rhode Island
Traffic Map
Current Weather Conditions
Providence, Rhode Island
Broken Clouds
Broken Clouds
60°
Feels Like: 60°
Wind Chill: 60° Ceiling: 30000
Heat Index: 60° Visibility: 10mi
Dew Point: 57° Wind: 0mph
Humidity: 90% Direction: ° ()
Pressure: 30.38in Gusts: 0mph
Raw Report DataKPVD 222351Z 00000KT 10SM FEW250 BKN300 16/14 A3038 RMK AO2 SLP288 T01560139 10256 20144 50004
Traffic Incident Summary
Active as of:
Severity:
Category:
InformationThere was an issue retrieving the traffic information for this location. Please try a different location or try again shortly.
Advertisements